Time;durP1;ratioP1;P1;durP2;ratioP2;P2;SDS_P1;SDS_P2;PMS_P1;PMS_P2;Temp;Humidity;BMP_temperature;BMP_pressure;BME280_temperature;BME280_humidity;BME280_pressure;Samples;Min_cycle;Max_cycle;Signal;HPM_P1;HPM_P2
2021/06/30 00:02:25;;;;;;;4.25;2.72;;;19.80;84.70;;;;;;4997616;28;20239;-89
2021/06/30 00:04:51;;;;;;;6.68;3.50;;;19.80;85.60;;;;;;4982067;28;20284;-91
2021/06/30 00:07:17;;;;;;;4.88;2.83;;;19.60;85.60;;;;;;5002116;28;20257;-91
2021/06/30 00:09:43;;;;;;;4.65;3.35;;;19.50;85.90;;;;;;4986804;28;20182;-92
2021/06/30 00:12:09;;;;;;;5.22;3.22;;;19.30;86.80;;;;;;4988804;28;20214;-92
2021/06/30 00:14:35;;;;;;;4.93;2.97;;;18.90;89.00;;;;;;5006244;28;20268;-90
2021/06/30 00:17:01;;;;;;;4.10;3.25;;;18.80;89.70;;;;;;5002794;28;20661;-90
2021/06/30 00:19:28;;;;;;;4.32;3.38;;;18.70;89.50;;;;;;5008742;28;20201;-90
2021/06/30 00:21:54;;;;;;;3.40;2.55;;;18.70;90.00;;;;;;5009549;28;20606;-90
2021/06/30 00:24:20;;;;;;;4.50;2.67;;;18.70;89.30;;;;;;4991899;28;20229;-89
2021/06/30 00:26:46;;;;;;;5.95;2.97;;;18.60;88.00;;;;;;5008051;28;20246;-88
2021/06/30 00:29:11;;;;;;;3.20;2.60;;;18.60;87.30;;;;;;4986670;28;20215;-90
2021/06/30 00:31:37;;;;;;;4.03;2.42;;;18.60;87.70;;;;;;4970564;28;20214;-89
2021/06/30 00:34:04;;;;;;;2.33;2.15;;;18.40;86.10;;;;;;5000406;28;20228;-92
2021/06/30 00:36:32;;;;;;;2.33;2.13;;;18.30;86.70;;;;;;4980474;28;20198;-89
2021/06/30 00:38:58;;;;;;;2.97;1.90;;;18.30;86.10;;;;;;4997693;28;20182;-89
2021/06/30 00:41:24;;;;;;;3.13;2.05;;;18.30;86.40;;;;;;5003669;28;20202;-91
2021/06/30 00:43:50;;;;;;;3.10;2.23;;;18.20;86.50;;;;;;4972651;28;20216;-90
2021/06/30 00:46:27;;;;;;;4.73;2.10;;;18.20;85.70;;;;;;5004876;28;20345;-90
2021/06/30 00:48:52;;;;;;;2.53;1.80;;;18.20;86.30;;;;;;4982754;28;20251;-89
2021/06/30 00:51:18;;;;;;;2.20;1.90;;;18.00;86.30;;;;;;5001682;28;20654;-89
2021/06/30 00:53:44;;;;;;;2.20;1.63;;;17.90;86.50;;;;;;4986224;28;20199;-90
2021/06/30 00:56:10;;;;;;;3.83;1.90;;;17.90;86.90;;;;;;4966592;28;20581;-90
2021/06/30 00:58:35;;;;;;;4.57;2.30;;;17.90;86.40;;;;;;4981652;28;20183;-90
2021/06/30 01:01:01;;;;;;;5.87;1.97;;;17.80;86.80;;;;;;4995186;28;20203;-88
2021/06/30 01:03:26;;;;;;;2.27;2.00;;;17.80;86.60;;;;;;4981467;28;20654;-90
2021/06/30 01:05:52;;;;;;;3.93;2.00;;;17.70;87.00;;;;;;4999421;28;20899;-90
2021/06/30 01:08:18;;;;;;;3.17;1.80;;;17.80;86.50;;;;;;4999054;28;20197;-90
2021/06/30 01:10:43;;;;;;;3.87;1.50;;;17.90;85.30;;;;;;4982567;28;20329;-89
2021/06/30 01:13:09;;;;;;;4.60;1.70;;;17.80;84.40;;;;;;4999257;28;20212;-90
2021/06/30 01:15:54;;;;;;;3.70;1.70;;;17.70;84.20;;;;;;5002000;28;20198;-90
2021/06/30 01:18:21;;;;;;;4.00;1.60;;;17.70;85.20;;;;;;5001929;28;20622;-86
2021/06/30 01:20:47;;;;;;;4.33;1.70;;;17.70;83.80;;;;;;5000529;28;20224;-90
2021/06/30 01:23:13;;;;;;;2.37;1.50;;;17.70;83.90;;;;;;4978059;28;20268;-92
2021/06/30 01:25:39;;;;;;;1.60;1.50;;;17.70;84.00;;;;;;4997465;28;20217;-90
2021/06/30 01:28:04;;;;;;;4.10;1.70;;;17.60;83.80;;;;;;4980788;28;20607;-90
2021/06/30 01:30:30;;;;;;;2.73;1.70;;;17.60;83.40;;;;;;4981215;28;20215;-90
2021/06/30 01:32:56;;;;;;;2.77;1.50;;;17.50;84.30;;;;;;4981841;28;20268;-91
2021/06/30 01:35:23;;;;;;;3.43;1.43;;;17.60;83.90;;;;;;5003876;28;20186;-91
2021/06/30 01:37:49;;;;;;;5.00;1.77;;;17.60;84.10;;;;;;5003429;28;20214;-86
2021/06/30 01:40:16;;;;;;;2.70;1.50;;;17.60;84.70;;;;;;4999823;28;20197;-86
2021/06/30 01:42:46;;;;;;;1.93;1.70;;;17.50;84.40;;;;;;4986296;28;20238;-91
2021/06/30 01:45:13;;;;;;;1.83;1.40;;;17.50;84.00;;;;;;4966371;28;20222;-89
2021/06/30 01:47:39;;;;;;;1.57;1.47;;;17.40;84.50;;;;;;4978288;28;20186;-91
2021/06/30 01:50:07;;;;;;;2.60;1.53;;;17.40;83.50;;;;;;4978438;28;20196;-91
2021/06/30 01:52:33;;;;;;;6.10;1.60;;;17.40;84.30;;;;;;4977435;28;20199;-90
2021/06/30 01:54:59;;;;;;;1.60;1.50;;;17.40;84.70;;;;;;4978255;28;20185;-90
2021/06/30 01:57:25;;;;;;;2.10;1.63;;;17.30;85.10;;;;;;4981264;28;20553;-90
2021/06/30 01:59:51;;;;;;;1.70;1.60;;;17.40;84.60;;;;;;4983510;28;20191;-90
2021/06/30 02:02:16;;;;;;;3.13;1.70;;;17.40;84.40;;;;;;4995414;28;20724;-90
2021/06/30 02:04:48;;;;;;;1.77;1.50;;;17.30;84.10;;;;;;4997371;28;20263;-92
2021/06/30 02:07:14;;;;;;;1.60;1.50;;;17.40;84.30;;;;;;4997341;28;20278;-90
2021/06/30 02:09:39;;;;;;;3.70;1.60;;;17.40;83.90;;;;;;4996975;28;20261;-90
2021/06/30 02:12:05;;;;;;;1.70;1.60;;;17.40;84.50;;;;;;4996723;28;20185;-88
2021/06/30 02:14:31;;;;;;;2.30;1.70;;;17.40;85.50;;;;;;4980800;28;20197;-90
2021/06/30 02:16:56;;;;;;;1.50;1.40;;;17.30;86.90;;;;;;5002905;28;20194;-90
2021/06/30 02:19:22;;;;;;;3.20;1.60;;;17.20;88.00;;;;;;5002413;28;20195;-90
2021/06/30 02:21:48;;;;;;;1.80;1.70;;;17.10;88.30;;;;;;4984515;28;20189;-90
2021/06/30 02:24:13;;;;;;;3.10;1.93;;;17.00;88.40;;;;;;5002464;28;20202;-91
2021/06/30 02:26:39;;;;;;;1.77;1.67;;;16.90;89.20;;;;;;5003500;28;20211;-90
2021/06/30 02:29:05;;;;;;;1.43;1.40;;;16.80;89.70;;;;;;5003087;28;20183;-90
2021/06/30 02:31:31;;;;;;;3.73;1.73;;;16.80;89.70;;;;;;5003117;28;20267;-91
2021/06/30 02:33:56;;;;;;;2.43;1.50;;;16.80;89.80;;;;;;5003074;28;20253;-91
2021/06/30 02:36:22;;;;;;;3.73;1.77;;;16.70;89.80;;;;;;4981532;28;20194;-90
2021/06/30 02:38:48;;;;;;;1.60;1.50;;;16.50;89.80;;;;;;5002130;28;20225;-90
2021/06/30 02:41:14;;;;;;;2.13;1.50;;;16.40;90.50;;;;;;5004230;28;20208;-91
2021/06/30 02:43:41;;;;;;;1.60;1.50;;;16.40;90.50;;;;;;5007672;28;20206;-89
2021/06/30 02:46:07;;;;;;;2.30;1.57;;;16.50;89.90;;;;;;4992914;28;20220;-90
2021/06/30 02:48:33;;;;;;;2.53;1.80;;;16.40;90.40;;;;;;5009768;28;20192;-91
2021/06/30 02:50:59;;;;;;;2.23;1.50;;;16.40;90.40;;;;;;5009623;28;20233;-91
2021/06/30 02:53:25;;;;;;;1.40;1.40;;;16.40;89.90;;;;;;5009481;28;20201;-91
2021/06/30 02:55:50;;;;;;;2.07;1.50;;;16.40;91.30;;;;;;4992603;28;20216;-91
2021/06/30 02:58:16;;;;;;;1.30;1.30;;;16.30;91.20;;;;;;5009747;28;20197;-91
2021/06/30 03:00:42;;;;;;;1.67;1.57;;;16.20;91.70;;;;;;4996410;28;20710;-91
2021/06/30 03:03:08;;;;;;;3.20;1.70;;;16.30;91.80;;;;;;4989597;28;20761;-91
2021/06/30 03:05:34;;;;;;;1.80;1.63;;;16.20;92.20;;;;;;4989704;28;20700;-91
2021/06/30 03:08:00;;;;;;;1.63;1.57;;;16.20;92.60;;;;;;4994947;28;20246;-91
2021/06/30 03:10:26;;;;;;;1.67;1.57;;;16.20;92.50;;;;;;5009149;28;20195;-92
2021/06/30 03:12:52;;;;;;;1.77;1.40;;;16.10;94.00;;;;;;4991696;28;20207;-90
2021/06/30 03:15:17;;;;;;;2.23;2.03;;;16.10;93.40;;;;;;5008881;28;20285;-91
2021/06/30 03:17:43;;;;;;;3.33;1.50;;;16.00;94.10;;;;;;5009534;28;20197;-91
2021/06/30 03:20:12;;;;;;;1.20;1.20;;;15.90;94.90;;;;;;5008701;28;20276;-91
2021/06/30 03:22:39;;;;;;;2.23;1.40;;;15.90;94.60;;;;;;4990742;28;20232;-91
2021/06/30 03:25:10;;;;;;;1.70;1.50;;;15.90;94.30;;;;;;5009251;28;20209;-90
2021/06/30 03:27:36;;;;;;;1.40;1.30;;;15.90;93.60;;;;;;5010315;28;20172;-91
2021/06/30 03:30:07;;;;;;;1.30;1.30;;;15.90;93.50;;;;;;5008228;28;20554;-91
2021/06/30 03:32:33;;;;;;;1.40;1.30;;;15.90;93.10;;;;;;4991189;28;20198;-90
2021/06/30 03:34:58;;;;;;;2.20;1.67;;;15.80;93.20;;;;;;4988882;28;20270;-90
2021/06/30 03:37:24;;;;;;;1.50;1.40;;;15.90;94.10;;;;;;4991943;28;20175;-88
2021/06/30 03:39:50;;;;;;;1.83;1.43;;;15.90;93.80;;;;;;4991770;28;20207;-87
2021/06/30 03:42:16;;;;;;;1.30;1.30;;;15.80;93.00;;;;;;4991882;28;20195;-91
2021/06/30 03:44:42;;;;;;;1.50;1.40;;;15.90;93.40;;;;;;4973630;28;20183;-92
2021/06/30 03:47:07;;;;;;;1.83;1.40;;;15.90;93.10;;;;;;4987638;28;20218;-88
2021/06/30 03:49:33;;;;;;;1.20;1.20;;;15.90;93.10;;;;;;4987889;28;20190;-91
2021/06/30 03:51:59;;;;;;;1.70;1.57;;;15.80;92.10;;;;;;4971093;28;20184;-89
2021/06/30 03:54:25;;;;;;;1.57;1.33;;;15.70;92.60;;;;;;4971399;28;20188;-91
2021/06/30 03:56:54;;;;;;;1.60;1.50;;;15.70;92.30;;;;;;5003500;28;20192;-90
2021/06/30 03:59:20;;;;;;;1.40;1.30;;;15.70;91.50;;;;;;5007574;28;20217;-90
2021/06/30 04:01:47;;;;;;;1.30;1.30;;;15.60;93.50;;;;;;5008476;28;20236;-91
2021/06/30 04:04:13;;;;;;;2.30;1.30;;;15.60;92.70;;;;;;4990681;28;20214;-87
2021/06/30 04:06:43;;;;;;;1.40;1.30;;;15.60;92.40;;;;;;5007740;28;20225;-90
2021/06/30 04:09:09;;;;;;;1.60;1.50;;;15.70;91.90;;;;;;5017182;28;20197;-86
2021/06/30 04:11:34;;;;;;;1.60;1.50;;;15.70;92.70;;;;;;4979540;28;20258;-91
2021/06/30 04:14:00;;;;;;;1.60;1.50;;;15.70;92.10;;;;;;5003086;28;20209;-89
2021/06/30 04:16:26;;;;;;;2.30;1.33;;;15.80;91.20;;;;;;5006463;28;20261;-89
2021/06/30 04:18:52;;;;;;;2.30;1.60;;;15.90;91.40;;;;;;4987467;28;20662;-90
2021/06/30 04:21:18;;;;;;;1.60;1.50;;;15.80;91.80;;;;;;4990237;28;20201;-90
2021/06/30 04:23:43;;;;;;;1.77;1.50;;;16.00;91.80;;;;;;5006477;28;20210;-89
2021/06/30 04:26:09;;;;;;;3.50;1.50;;;16.00;89.50;;;;;;4990152;28;20216;-89
2021/06/30 04:28:35;;;;;;;1.60;1.37;;;16.00;90.10;;;;;;5007457;28;20184;-91
2021/06/30 04:31:01;;;;;;;2.23;1.60;;;15.90;90.70;;;;;;4957069;28;20186;-90
2021/06/30 04:33:30;;;;;;;2.03;1.50;;;15.90;90.10;;;;;;4989401;28;20198;-90
2021/06/30 04:35:57;;;;;;;1.50;1.40;;;15.90;90.80;;;;;;4974292;28;20180;-90
2021/06/30 04:38:25;;;;;;;1.60;1.50;;;15.90;90.00;;;;;;5007678;28;20190;-89
2021/06/30 04:40:52;;;;;;;1.50;1.40;;;15.90;90.10;;;;;;5006977;28;20182;-90
2021/06/30 04:43:17;;;;;;;1.47;1.47;;;15.90;90.20;;;;;;4962753;28;20203;-89
2021/06/30 04:45:43;;;;;;;1.70;1.50;;;16.00;90.10;;;;;;4970024;28;20238;-89
2021/06/30 04:48:09;;;;;;;1.90;1.40;;;16.00;89.90;;;;;;4954216;28;20210;-89
2021/06/30 04:50:34;;;;;;;1.47;1.40;;;16.10;89.10;;;;;;4987075;28;20178;-88
2021/06/30 04:53:00;;;;;;;1.87;1.50;;;16.10;89.20;;;;;;4987515;28;20582;-89
2021/06/30 04:55:26;;;;;;;2.30;1.43;;;16.10;88.70;;;;;;4969388;28;20190;-90
2021/06/30 04:57:51;;;;;;;2.80;1.60;;;16.00;88.30;;;;;;4969458;28;20179;-89
2021/06/30 05:00:17;;;;;;;2.23;1.40;;;16.10;89.90;;;;;;5004507;28;20209;-89
2021/06/30 05:02:43;;;;;;;1.60;1.50;;;16.10;89.10;;;;;;5005934;28;20206;-90
2021/06/30 05:05:09;;;;;;;2.60;1.27;;;16.10;89.80;;;;;;4973585;28;20235;-89
2021/06/30 05:07:35;;;;;;;1.43;1.40;;;16.10;89.10;;;;;;4990498;28;20205;-90
2021/06/30 05:10:00;;;;;;;2.30;1.50;;;16.20;89.10;;;;;;4988563;28;20254;-89
2021/06/30 05:12:26;;;;;;;2.60;1.67;;;16.10;90.00;;;;;;5005934;28;20202;-90
2021/06/30 05:14:52;;;;;;;1.57;1.47;;;16.20;90.30;;;;;;4986599;28;20212;-89
2021/06/30 05:17:17;;;;;;;2.80;1.67;;;16.30;88.50;;;;;;5003287;28;20652;-90
2021/06/30 05:19:43;;;;;;;1.73;1.63;;;16.30;88.30;;;;;;4986438;28;20198;-89
2021/06/30 05:22:09;;;;;;;2.10;1.47;;;16.10;88.80;;;;;;4969344;28;20613;-89
2021/06/30 05:24:34;;;;;;;3.60;1.60;;;15.90;89.20;;;;;;4986941;28;20194;-89
2021/06/30 05:27:00;;;;;;;2.20;1.70;;;16.00;88.70;;;;;;4970299;28;20210;-89
2021/06/30 05:29:26;;;;;;;3.23;1.77;;;16.00;88.60;;;;;;4987234;28;20254;-89
2021/06/30 05:31:52;;;;;;;2.23;1.80;;;16.10;89.00;;;;;;5001991;28;20185;-89
2021/06/30 05:34:17;;;;;;;1.70;1.60;;;16.10;89.70;;;;;;5006168;28;20213;-89
2021/06/30 05:36:49;;;;;;;3.47;1.60;;;16.00;89.30;;;;;;4965805;28;20217;-89
2021/06/30 05:39:19;;;;;;;3.03;1.60;;;16.00;89.00;;;;;;5003580;28;20693;-90
2021/06/30 05:41:46;;;;;;;2.23;1.60;;;16.10;88.30;;;;;;5005525;28;20186;-90
2021/06/30 05:44:13;;;;;;;2.50;1.50;;;16.20;87.50;;;;;;4998620;28;20209;-88
2021/06/30 05:46:41;;;;;;;2.27;1.63;;;16.10;88.50;;;;;;4994409;28;20213;-89
2021/06/30 05:49:07;;;;;;;1.90;1.70;;;16.30;88.00;;;;;;4987056;28;20187;-88
2021/06/30 05:51:34;;;;;;;1.93;1.60;;;16.30;87.60;;;;;;4987294;28;20201;-91
2021/06/30 05:54:00;;;;;;;1.70;1.57;;;16.50;87.10;;;;;;4996873;28;20205;-90
2021/06/30 05:56:26;;;;;;;2.57;1.50;;;16.70;87.90;;;;;;5006223;28;20184;-88
2021/06/30 05:58:52;;;;;;;1.97;1.67;;;16.80;85.70;;;;;;5006037;28;20571;-88
2021/06/30 06:01:18;;;;;;;2.90;1.77;;;17.00;85.50;;;;;;5006220;28;20187;-89
2021/06/30 06:03:44;;;;;;;2.17;1.60;;;16.90;84.40;;;;;;4988690;28;20214;-88
2021/06/30 06:06:10;;;;;;;1.77;1.67;;;16.80;84.30;;;;;;4996137;28;20623;-89
2021/06/30 06:08:35;;;;;;;2.43;1.43;;;16.80;84.70;;;;;;4992353;28;20245;-89
2021/06/30 06:11:02;;;;;;;2.03;1.63;;;16.80;86.30;;;;;;4994631;28;20175;-89
2021/06/30 06:13:27;;;;;;;2.73;1.73;;;16.80;85.70;;;;;;4993762;28;20194;-89
2021/06/30 06:15:53;;;;;;;3.63;1.80;;;17.00;85.20;;;;;;5003721;28;20193;-89
2021/06/30 06:18:19;;;;;;;1.43;1.33;;;17.10;85.70;;;;;;4982897;28;20199;-89
2021/06/30 06:20:44;;;;;;;2.63;1.50;;;17.10;85.70;;;;;;4959474;28;20260;-88
2021/06/30 06:23:10;;;;;;;2.77;1.50;;;17.20;84.20;;;;;;4980213;28;20217;-89
2021/06/30 06:25:36;;;;;;;2.73;1.60;;;17.30;84.70;;;;;;4993477;28;20209;-88
2021/06/30 06:30:37;;;;;;;1.40;1.30;;;17.20;84.80;;;;;;5002783;28;20220;-87
2021/06/30 06:33:03;;;;;;;4.43;1.60;;;17.10;84.90;;;;;;5002278;28;20184;-86
2021/06/30 06:35:28;;;;;;;1.67;1.53;;;17.10;84.50;;;;;;5003652;28;20271;-86
2021/06/30 06:37:54;;;;;;;2.17;1.40;;;16.90;86.50;;;;;;5002784;28;20270;-88
2021/06/30 06:40:20;;;;;;;2.60;1.47;;;16.90;88.50;;;;;;5006810;28;20205;-86
2021/06/30 06:42:45;;;;;;;5.53;1.80;;;17.00;88.80;;;;;;5012271;28;20197;-86
2021/06/30 06:45:11;;;;;;;1.63;1.40;;;16.90;88.10;;;;;;5003587;28;20206;-87
2021/06/30 06:47:37;;;;;;;3.23;1.70;;;16.90;87.90;;;;;;5017711;28;20180;-86
2021/06/30 06:50:04;;;;;;;1.77;1.50;;;16.90;87.90;;;;;;5035824;28;20210;-86
2021/06/30 06:52:30;;;;;;;1.73;1.63;;;16.80;88.60;;;;;;5020452;28;20196;-85
2021/06/30 06:54:56;;;;;;;1.53;1.43;;;16.70;89.90;;;;;;5027114;28;20206;-86
2021/06/30 06:57:21;;;;;;;1.90;1.63;;;16.80;89.30;;;;;;5010767;28;20190;-89
2021/06/30 06:59:47;;;;;;;1.43;1.40;;;16.80;88.10;;;;;;5028700;28;20216;-87
2021/06/30 07:02:13;;;;;;;1.50;1.40;;;16.70;88.70;;;;;;5031193;28;20221;-87
2021/06/30 07:04:38;;;;;;;1.57;1.47;;;16.60;87.50;;;;;;5025978;28;20790;-86
2021/06/30 07:07:04;;;;;;;3.67;1.70;;;16.60;88.40;;;;;;5011397;28;20274;-86
2021/06/30 07:09:30;;;;;;;1.90;1.80;;;16.60;89.30;;;;;;5021685;28;20292;-88
2021/06/30 07:11:55;;;;;;;1.60;1.50;;;16.50;89.60;;;;;;5011633;28;20193;-86
2021/06/30 07:14:21;;;;;;;1.60;1.50;;;16.50;90.20;;;;;;5007131;28;20205;-88
2021/06/30 07:16:47;;;;;;;1.67;1.57;;;16.60;90.20;;;;;;5008617;28;20694;-88
2021/06/30 07:19:13;;;;;;;2.43;1.70;;;16.50;90.00;;;;;;5014450;28;20217;-88
2021/06/30 07:21:39;;;;;;;2.87;1.70;;;16.40;90.70;;;;;;5006436;28;20193;-87
2021/06/30 07:24:06;;;;;;;3.23;1.60;;;16.40;90.50;;;;;;5007860;28;20257;-87
2021/06/30 07:26:33;;;;;;;1.60;1.50;;;16.30;90.60;;;;;;5005385;28;20219;-89
2021/06/30 07:28:58;;;;;;;2.60;1.70;;;16.40;91.10;;;;;;5016764;28;20256;-90
2021/06/30 07:31:24;;;;;;;1.60;1.50;;;16.20;92.20;;;;;;5007219;28;20751;-87
2021/06/30 07:33:50;;;;;;;1.50;1.50;;;16.10;91.80;;;;;;5004053;28;20207;-89
2021/06/30 07:36:16;;;;;;;6.63;3.10;;;16.00;91.60;;;;;;5016831;28;20252;-89
2021/06/30 07:38:44;;;;;;;12.97;2.57;;;16.00;93.20;;;;;;5022848;28;20221;-91
2021/06/30 07:41:10;;;;;;;1.97;1.70;;;16.10;93.50;;;;;;5015806;28;20260;-89
2021/06/30 07:43:36;;;;;;;2.83;1.67;;;16.10;93.40;;;;;;5014632;28;20779;-88
2021/06/30 07:46:02;;;;;;;2.60;1.83;;;16.00;93.30;;;;;;4994281;28;20234;-88
2021/06/30 07:48:27;;;;;;;2.60;1.70;;;15.90;94.00;;;;;;5007436;28;20611;-88
2021/06/30 07:50:53;;;;;;;2.20;1.70;;;15.80;95.30;;;;;;4989355;28;20243;-90
2021/06/30 07:53:18;;;;;;;2.67;1.83;;;15.70;95.80;;;;;;5008015;28;20218;-87
2021/06/30 07:55:46;;;;;;;2.03;1.80;;;15.80;97.00;;;;;;5010547;28;20186;-88
2021/06/30 07:58:12;;;;;;;2.50;1.80;;;15.80;95.50;;;;;;5017589;28;20738;-87
2021/06/30 08:00:38;;;;;;;1.83;1.73;;;15.80;95.20;;;;;;4991407;28;20197;-88
2021/06/30 08:03:04;;;;;;;1.93;1.60;;;15.70;95.80;;;;;;5001945;28;20210;-88
2021/06/30 08:05:32;;;;;;;2.33;2.07;;;15.90;95.50;;;;;;4995729;28;20231;-87
2021/06/30 08:07:58;;;;;;;2.07;1.80;;;15.80;94.80;;;;;;5011089;28;20217;-87
2021/06/30 08:10:23;;;;;;;2.33;1.80;;;15.90;94.60;;;;;;4991030;28;20225;-88
2021/06/30 08:12:49;;;;;;;1.97;1.80;;;15.90;96.10;;;;;;5012640;28;20196;-87
2021/06/30 08:15:15;;;;;;;2.53;2.00;;;15.80;95.30;;;;;;5006787;28;20195;-88
2021/06/30 08:17:44;;;;;;;1.87;1.77;;;15.80;96.30;;;;;;5004429;28;20194;-89
2021/06/30 08:20:10;;;;;;;2.10;1.90;;;15.80;96.30;;;;;;5003114;28;20204;-91
2021/06/30 08:22:36;;;;;;;2.10;1.90;;;15.90;95.90;;;;;;4987601;28;20498;-86
2021/06/30 08:25:03;;;;;;;2.63;1.67;;;15.80;96.10;;;;;;5015594;28;20255;-86
2021/06/30 08:27:28;;;;;;;1.77;1.67;;;15.90;94.90;;;;;;5015601;28;20193;-89
2021/06/30 08:29:55;;;;;;;2.00;1.50;;;15.90;95.60;;;;;;5014244;28;20223;-86
2021/06/30 08:32:24;;;;;;;1.70;1.60;;;15.90;93.80;;;;;;5008728;28;20241;-89
2021/06/30 08:34:50;;;;;;;2.60;1.73;;;15.80;94.90;;;;;;4987054;28;20255;-87
2021/06/30 08:37:18;;;;;;;1.70;1.60;;;15.90;96.90;;;;;;4986354;28;20198;-87
2021/06/30 08:39:44;;;;;;;2.17;1.60;;;15.80;96.90;;;;;;5004987;28;20247;-87
2021/06/30 08:42:10;;;;;;;1.90;1.77;;;15.90;95.70;;;;;;5009621;28;20220;-87
2021/06/30 08:44:35;;;;;;;1.97;1.50;;;16.00;96.00;;;;;;5008783;28;20198;-88
2021/06/30 08:47:02;;;;;;;2.57;1.70;;;15.90;95.10;;;;;;5004982;28;20723;-88
2021/06/30 08:49:28;;;;;;;1.97;1.73;;;16.00;96.20;;;;;;5011059;28;20217;-85
2021/06/30 08:51:56;;;;;;;1.97;1.77;;;16.10;95.30;;;;;;5008439;28;20247;-86
2021/06/30 08:54:22;;;;;;;2.77;1.90;;;16.20;93.60;;;;;;4983797;28;20414;-87
2021/06/30 08:56:49;;;;;;;2.07;1.83;;;16.30;94.10;;;;;;5007643;28;20609;-88
2021/06/30 08:59:15;;;;;;;2.03;1.93;;;16.30;94.70;;;;;;5007139;28;20577;-89
2021/06/30 09:01:43;;;;;;;1.80;1.70;;;16.30;94.40;;;;;;4993786;28;20201;-88
2021/06/30 09:04:11;;;;;;;3.20;1.90;;;16.40;93.30;;;;;;5006670;28;20189;-87
2021/06/30 09:06:36;;;;;;;1.80;1.70;;;16.40;94.80;;;;;;5009663;28;20281;-87
2021/06/30 09:09:13;;;;;;;1.70;1.60;;;16.40;94.90;;;;;;5010151;28;20225;-89
2021/06/30 09:11:41;;;;;;;1.80;1.67;;;16.50;92.70;;;;;;5006943;28;20627;-87
2021/06/30 09:14:31;;;;;;;3.20;1.80;;;16.30;93.20;;;;;;5003455;28;20549;-88
2021/06/30 09:17:20;;;;;;;1.80;1.70;;;16.40;94.80;;;;;;5008115;28;20704;-90
2021/06/30 09:20:15;;;;;;;2.77;1.87;;;16.50;94.00;;;;;;4982532;28;20220;-88
2021/06/30 09:22:54;;;;;;;2.70;1.80;;;16.40;94.00;;;;;;4990369;28;20738;-88
2021/06/30 09:25:40;;;;;;;2.40;2.00;;;16.40;95.40;;;;;;4996976;28;20195;-88
2021/06/30 09:28:16;;;;;;;1.83;1.73;;;16.50;93.80;;;;;;5012423;28;20178;-87
2021/06/30 09:31:00;;;;;;;2.00;1.63;;;16.50;94.50;;;;;;5004898;28;20196;-87
2021/06/30 09:33:45;;;;;;;2.00;1.83;;;16.50;91.50;;;;;;5003047;28;20195;-88
2021/06/30 09:36:13;;;;;;;1.77;1.67;;;16.60;91.60;;;;;;4985353;28;20283;-90
2021/06/30 09:38:40;;;;;;;2.13;1.73;;;16.70;91.90;;;;;;5005081;28;20205;-88
2021/06/30 09:41:07;;;;;;;3.03;1.90;;;16.80;92.10;;;;;;5004195;28;20304;-88
2021/06/30 09:43:34;;;;;;;1.83;1.73;;;16.80;89.60;;;;;;5009556;28;20206;-88
2021/06/30 09:46:02;;;;;;;1.70;1.60;;;16.90;91.70;;;;;;5008400;28;20298;-88
2021/06/30 09:48:30;;;;;;;3.60;1.80;;;16.90;92.00;;;;;;5004074;28;20210;-87
2021/06/30 09:50:56;;;;;;;2.40;1.90;;;16.80;93.70;;;;;;5021149;28;20190;-89
2021/06/30 09:53:36;;;;;;;1.90;1.80;;;17.00;92.60;;;;;;5028619;28;20244;-89
2021/06/30 09:56:35;;;;;;;1.93;1.83;;;17.00;89.50;;;;;;5009634;28;20197;-87
2021/06/30 09:59:09;;;;;;;1.90;1.80;;;17.10;88.60;;;;;;5012995;28;20235;-89
2021/06/30 10:01:38;;;;;;;2.00;1.80;;;17.10;90.20;;;;;;5031996;28;20180;-91
2021/06/30 10:04:04;;;;;;;1.70;1.60;;;17.30;88.80;;;;;;5028940;28;20240;-87
2021/06/30 10:06:34;;;;;;;2.10;2.00;;;17.30;88.90;;;;;;5014380;28;20242;-88
2021/06/30 10:09:06;;;;;;;2.87;2.00;;;17.40;88.80;;;;;;5013840;28;20217;-87
2021/06/30 10:11:34;;;;;;;1.80;1.70;;;17.60;88.00;;;;;;5019085;28;20732;-88
2021/06/30 10:14:01;;;;;;;1.70;1.60;;;17.70;85.40;;;;;;5021307;28;20223;-88
2021/06/30 10:16:27;;;;;;;1.87;1.47;;;17.70;87.90;;;;;;5008854;28;20191;-90
2021/06/30 10:18:55;;;;;;;2.33;1.93;;;17.70;86.50;;;;;;5012813;28;20212;-88
2021/06/30 10:21:26;;;;;;;1.90;1.80;;;17.90;86.30;;;;;;5008532;28;20248;-89
2021/06/30 10:23:53;;;;;;;2.80;1.80;;;17.90;86.30;;;;;;5019514;28;20284;-87
2021/06/30 10:26:21;;;;;;;4.87;1.80;;;18.00;86.50;;;;;;5016958;28;20943;-88
2021/06/30 10:28:51;;;;;;;2.43;1.80;;;18.10;85.30;;;;;;5009959;28;20233;-89
2021/06/30 10:31:17;;;;;;;1.90;1.80;;;18.20;83.60;;;;;;5025418;28;20201;-88
2021/06/30 10:33:59;;;;;;;2.20;2.10;;;18.30;83.30;;;;;;5014569;28;20196;-88
2021/06/30 10:36:56;;;;;;;1.80;1.70;;;18.30;82.60;;;;;;5016500;28;20641;-87
2021/06/30 10:39:38;;;;;;;2.03;1.93;;;18.60;82.80;;;;;;5011172;28;20242;-88
2021/06/30 10:42:24;;;;;;;2.27;2.07;;;18.70;81.00;;;;;;5011704;28;20185;-87
2021/06/30 10:44:56;;;;;;;1.90;1.80;;;18.60;81.70;;;;;;5004051;28;20235;-87
2021/06/30 10:47:49;;;;;;;6.47;2.10;;;18.60;81.20;;;;;;5017967;28;20876;-87
2021/06/30 10:50:22;;;;;;;1.97;1.87;;;18.80;81.10;;;;;;5014902;28;20206;-87
2021/06/30 10:53:15;;;;;;;3.40;1.60;;;18.80;79.70;;;;;;5012288;28;20200;-87
2021/06/30 10:55:49;;;;;;;3.13;2.07;;;18.70;79.60;;;;;;5000997;28;20740;-89
2021/06/30 10:58:17;;;;;;;1.80;1.70;;;18.80;77.10;;;;;;4997313;28;20190;-88
2021/06/30 11:01:23;;;;;;;1.87;1.70;;;18.70;77.60;;;;;;5007598;28;20214;-88
2021/06/30 11:03:50;;;;;;;1.80;1.70;;;18.80;80.70;;;;;;4991647;28;20232;-88
2021/06/30 11:06:31;;;;;;;2.27;1.60;;;18.80;81.00;;;;;;5030346;28;20302;-87
2021/06/30 11:09:09;;;;;;;1.83;1.73;;;18.80;78.30;;;;;;5026325;23;20251;-86
2021/06/30 11:11:38;;;;;;;1.63;1.53;;;19.00;75.30;;;;;;5002953;28;20209;-88
2021/06/30 11:14:13;;;;;;;2.13;1.93;;;18.90;77.60;;;;;;5018552;28;20189;-87
2021/06/30 11:16:38;;;;;;;3.00;1.77;;;18.90;77.50;;;;;;5020756;28;20182;-87
2021/06/30 11:19:26;;;;;;;1.87;1.70;;;18.90;76.00;;;;;;5007567;28;20209;-87
2021/06/30 11:21:56;;;;;;;1.70;1.60;;;19.10;75.20;;;;;;5002254;28;20210;-90
2021/06/30 11:24:49;;;;;;;1.60;1.50;;;19.20;75.70;;;;;;4993947;28;20552;-87
2021/06/30 11:27:22;;;;;;;2.73;1.60;;;19.40;74.10;;;;;;5002117;28;20214;-88
2021/06/30 11:29:58;;;;;;;1.70;1.60;;;19.30;76.80;;;;;;5005895;28;20205;-88
2021/06/30 11:32:35;;;;;;;1.97;1.87;;;19.10;76.40;;;;;;5009071;28;20889;-87
2021/06/30 11:35:23;;;;;;;1.70;1.60;;;19.00;77.70;;;;;;5006459;28;20200;-88
2021/06/30 11:38:02;;;;;;;4.35;2.20;;;18.90;79.90;;;;;;5005686;28;20200;-90
2021/06/30 11:40:35;;;;;;;5.67;2.10;;;18.60;82.80;;;;;;5004680;28;20207;-89
2021/06/30 11:43:09;;;;;;;1.93;1.80;;;18.30;86.60;;;;;;5008867;28;20656;-89
2021/06/30 11:45:35;;;;;;;2.20;2.10;;;18.30;86.90;;;;;;5000698;28;20207;-89
2021/06/30 11:48:03;;;;;;;1.80;1.70;;;18.60;88.10;;;;;;5004391;28;20255;-89
2021/06/30 11:50:32;;;;;;;2.03;1.70;;;18.70;86.10;;;;;;5008616;28;20196;-88
2021/06/30 11:52:59;;;;;;;1.90;1.77;;;18.60;87.00;;;;;;4979164;28;20262;-88
2021/06/30 11:55:26;;;;;;;1.90;1.80;;;18.60;86.60;;;;;;5010289;28;20218;-88
2021/06/30 11:58:01;;;;;;;2.13;1.73;;;18.60;84.00;;;;;;5003649;28;20215;-88
2021/06/30 12:00:29;;;;;;;1.92;1.83;;;18.70;85.50;;;;;;5003089;28;20274;-89
2021/06/30 12:02:58;;;;;;;2.20;2.00;;;18.80;84.90;;;;;;5004358;28;20191;-89
2021/06/30 12:05:25;;;;;;;2.00;1.80;;;18.70;82.80;;;;;;5007850;28;20234;-88
2021/06/30 12:07:54;;;;;;;1.95;1.85;;;18.60;83.40;;;;;;5003876;28;20184;-89
2021/06/30 12:10:21;;;;;;;1.67;1.57;;;18.40;84.60;;;;;;5002682;28;20227;-88
2021/06/30 12:12:49;;;;;;;2.70;1.70;;;18.10;85.40;;;;;;5006181;28;20217;-89
2021/06/30 12:15:16;;;;;;;4.93;2.27;;;17.90;87.40;;;;;;5009504;28;20247;-88
2021/06/30 12:17:49;;;;;;;2.67;2.37;;;17.70;91.10;;;;;;5011932;28;20193;-90
2021/06/30 12:20:21;;;;;;;2.43;2.17;;;17.50;92.20;;;;;;5008989;28;20249;-89
2021/06/30 12:22:47;;;;;;;2.67;2.07;;;17.40;92.10;;;;;;4996772;28;20190;-89
2021/06/30 12:25:19;;;;;;;3.00;2.23;;;17.40;92.90;;;;;;5010897;28;20186;-90
2021/06/30 12:28:06;;;;;;;2.47;2.30;;;17.50;93.60;;;;;;5010169;28;20333;-89
2021/06/30 12:30:37;;;;;;;3.57;2.13;;;17.60;94.20;;;;;;5005142;28;20199;-90
2021/06/30 12:33:12;;;;;;;2.37;2.03;;;17.80;93.50;;;;;;4986561;28;20194;-89
2021/06/30 12:35:57;;;;;;;2.77;2.23;;;18.00;92.00;;;;;;5009013;28;20187;-88
2021/06/30 12:38:31;;;;;;;4.30;2.43;;;18.20;90.40;;;;;;5009515;28;20623;-89
2021/06/30 12:41:24;;;;;;;2.10;2.00;;;18.50;91.70;;;;;;5015892;28;20199;-91
2021/06/30 12:44:00;;;;;;;2.65;1.98;;;19.20;90.00;;;;;;5011124;28;20223;-90
2021/06/30 12:46:26;;;;;;;2.25;2.15;;;19.40;81.60;;;;;;5008563;28;20307;-89
2021/06/30 12:48:52;;;;;;;4.20;2.08;;;20.00;85.00;;;;;;5006003;28;20229;-91
2021/06/30 12:51:22;;;;;;;3.40;2.10;;;20.10;80.70;;;;;;5030204;28;20201;-90
2021/06/30 12:53:48;;;;;;;2.05;1.88;;;20.10;82.20;;;;;;5014872;28;20166;-88
2021/06/30 12:56:22;;;;;;;3.63;2.20;;;20.00;83.10;;;;;;4992925;28;20211;-88
2021/06/30 12:58:53;;;;;;;2.42;2.00;;;19.60;83.20;;;;;;5021475;28;20240;-89